createdAt,value
2019-04-14T00:02:03.659Z,3.40
2019-04-14T00:04:34.064Z,3.50
2019-04-14T00:07:03.714Z,3.60
2019-04-14T00:09:33.736Z,3.60
2019-04-14T00:12:05.801Z,3.70
2019-04-14T00:14:33.647Z,3.70
2019-04-14T00:17:02.636Z,3.80
2019-04-14T00:19:32.642Z,3.80
2019-04-14T00:22:03.064Z,3.80
2019-04-14T00:24:32.061Z,3.90
2019-04-14T00:27:02.041Z,3.90
2019-04-14T00:29:31.337Z,3.90
2019-04-14T00:32:00.885Z,3.90
2019-04-14T00:34:31.403Z,3.90
2019-04-14T00:37:03.348Z,4.00
2019-04-14T00:39:37.842Z,3.90
2019-04-14T00:42:11.295Z,3.90
2019-04-14T00:44:42.939Z,3.80
2019-04-14T00:47:26.682Z,3.80
2019-04-14T00:49:55.674Z,3.80
2019-04-14T00:52:25.445Z,3.70
2019-04-14T00:54:54.398Z,3.70
2019-04-14T00:57:23.185Z,3.50
2019-04-14T00:59:53.088Z,3.50
2019-04-14T01:02:23.212Z,3.40
2019-04-14T01:04:53.313Z,3.40
2019-04-14T01:07:22.619Z,3.30
2019-04-14T01:09:51.449Z,3.20
2019-04-14T01:12:21.139Z,3.10
2019-04-14T01:14:50.192Z,3.10
2019-04-14T01:17:19.901Z,3.00
2019-04-14T01:19:48.735Z,2.90
2019-04-14T01:22:18.382Z,2.90
2019-04-14T01:24:47.307Z,2.80
2019-04-14T01:27:16.779Z,2.80
2019-04-14T01:29:47.269Z,2.70
2019-04-14T01:32:16.087Z,2.60
2019-04-14T01:34:45.553Z,2.60
2019-04-14T01:37:14.443Z,2.50
2019-04-14T01:39:43.548Z,2.40
2019-04-14T01:42:13.752Z,2.40
2019-04-14T01:44:43.918Z,2.30
2019-04-14T01:47:13.762Z,2.30
2019-04-14T01:49:42.627Z,2.30
2019-04-14T01:52:29.625Z,2.20
2019-04-14T01:55:17.638Z,2.20
2019-04-14T01:57:50.889Z,2.20
2019-04-14T02:00:38.158Z,2.10
2019-04-14T02:03:08.475Z,2.10
2019-04-14T02:05:38.329Z,2.10
2019-04-14T02:08:07.437Z,2.10
2019-04-14T02:10:36.878Z,2.00
2019-04-14T02:13:07.072Z,2.00
2019-04-14T02:15:37.320Z,2.00
2019-04-14T02:18:07.747Z,2.00
2019-04-14T02:20:38.113Z,2.10
2019-04-14T02:23:08.145Z,2.10
2019-04-14T02:25:38.116Z,2.20
2019-04-14T02:28:07.077Z,2.20
2019-04-14T02:30:44.219Z,2.20
2019-04-14T02:36:14.067Z,2.40
2019-04-14T02:41:12.969Z,2.50
2019-04-14T02:43:38.094Z,2.60
2019-04-14T02:46:04.015Z,2.70
2019-04-14T02:48:44.248Z,2.90
2019-04-14T02:51:12.318Z,3.00
2019-04-14T02:53:42.643Z,3.10
2019-04-14T03:01:14.746Z,3.20
2019-04-14T03:03:43.024Z,3.30
2019-04-14T03:08:47.678Z,3.50
2019-04-14T03:11:11.870Z,3.60
2019-04-14T03:13:45.907Z,3.70
2019-04-14T03:16:13.778Z,3.80
2019-04-14T03:18:57.814Z,3.80
2019-04-14T03:21:34.572Z,3.90
2019-04-14T03:24:33.928Z,3.90
2019-04-14T03:29:49.897Z,4.00
2019-04-14T03:34:43.080Z,4.10
2019-04-14T03:37:29.228Z,4.10
2019-04-14T03:39:40.545Z,4.20
2019-04-14T03:42:13.132Z,4.20
2019-04-14T03:44:41.433Z,4.20
2019-04-14T03:49:37.287Z,4.30
2019-04-14T03:52:03.728Z,4.40
2019-04-14T03:54:36.704Z,4.40
2019-04-14T03:56:49.439Z,4.40
2019-04-14T03:59:19.675Z,4.50
2019-04-14T04:01:49.947Z,4.50
2019-04-14T04:04:18.981Z,4.50
2019-04-14T04:06:48.605Z,4.50
2019-04-14T04:09:17.712Z,4.60
2019-04-14T04:11:47.561Z,4.60
2019-04-14T04:14:18.047Z,4.60
2019-04-14T04:16:55.135Z,4.60
2019-04-14T04:19:35.825Z,4.60
2019-04-14T04:22:12.887Z,4.70
2019-04-14T04:24:43.412Z,4.70
2019-04-14T04:27:13.799Z,4.70
2019-04-14T04:29:48.352Z,4.70
2019-04-14T04:32:36.243Z,4.70
2019-04-14T04:35:19.879Z,4.80
2019-04-14T04:38:09.475Z,4.80
2019-04-14T04:40:39.629Z,4.80
2019-04-14T04:43:10.092Z,4.80
2019-04-14T04:45:38.921Z,4.80
2019-04-14T04:48:08.788Z,4.80
2019-04-14T04:50:38.795Z,4.80
2019-04-14T04:53:07.676Z,4.80
2019-04-14T04:55:37.372Z,4.90
2019-04-14T04:58:06.325Z,4.90
2019-04-14T05:00:35.438Z,4.90
2019-04-14T05:03:04.227Z,5.00
2019-04-14T05:06:11.145Z,5.00
2019-04-14T05:08:43.559Z,5.00
2019-04-14T05:11:20.891Z,5.00
2019-04-14T05:13:51.213Z,5.00
2019-04-14T05:16:21.451Z,5.00
2019-04-14T05:18:50.859Z,5.00
2019-04-14T05:21:19.902Z,5.10
2019-04-14T05:23:49.506Z,5.00
2019-04-14T05:26:18.330Z,5.10
2019-04-14T05:28:48.363Z,5.10
2019-04-14T05:31:18.513Z,5.10
2019-04-14T05:33:47.469Z,5.10
2019-04-14T05:36:17.102Z,5.20
2019-04-14T05:38:45.932Z,5.20
2019-04-14T05:41:15.736Z,5.20
2019-04-14T05:43:51.412Z,5.20
2019-04-14T05:46:16.267Z,5.30
2019-04-14T05:48:45.240Z,5.30
2019-04-14T05:51:15.412Z,5.30
2019-04-14T05:53:44.397Z,5.30
2019-04-14T05:56:14.267Z,5.30
2019-04-14T05:58:43.227Z,5.30
2019-04-14T06:01:13.796Z,5.30
2019-04-14T06:03:43.280Z,5.40
2019-04-14T06:06:12.177Z,5.50
2019-04-14T06:08:41.360Z,5.70
2019-04-14T06:11:10.172Z,5.90
2019-04-14T06:13:39.933Z,5.90
2019-04-14T06:16:08.781Z,5.90
2019-04-14T06:18:37.573Z,5.90
2019-04-14T06:21:06.358Z,5.90
2019-04-14T06:23:35.191Z,5.90
2019-04-14T06:26:03.986Z,5.90
2019-04-14T06:28:33.205Z,5.90
2019-04-14T06:31:12.501Z,5.90
2019-04-14T06:33:45.492Z,5.90
2019-04-14T06:36:32.372Z,5.90
2019-04-14T06:39:15.237Z,5.90
2019-04-14T06:41:44.065Z,5.90
2019-04-14T06:44:13.132Z,5.90
2019-04-14T06:46:42.333Z,6.00
2019-04-14T06:49:11.135Z,6.00
2019-04-14T06:51:39.917Z,6.00
2019-04-14T06:54:08.769Z,6.00
2019-04-14T06:56:37.596Z,6.10
2019-04-14T06:59:06.771Z,6.10
2019-04-14T07:01:35.581Z,6.10
2019-04-14T07:04:04.407Z,6.00
2019-04-14T07:06:33.217Z,6.10
2019-04-14T07:09:02.022Z,6.10
2019-04-14T07:11:30.853Z,6.10
2019-04-14T07:13:59.647Z,6.10
2019-04-14T07:16:28.473Z,6.10
2019-04-14T07:18:57.262Z,6.10
2019-04-14T07:21:26.089Z,6.10
2019-04-14T07:23:54.925Z,6.10
2019-04-14T07:26:23.758Z,6.20
2019-04-14T07:28:56.781Z,6.30
2019-04-14T07:31:24.613Z,6.30
2019-04-14T07:33:55.318Z,6.30
2019-04-14T07:36:31.427Z,6.30
2019-04-14T07:39:19.853Z,6.20
2019-04-14T07:41:55.836Z,6.20
2019-04-14T07:44:42.579Z,6.30
2019-04-14T07:47:12.954Z,6.30
2019-04-14T07:49:49.019Z,6.20
2019-04-14T07:52:27.241Z,6.30
2019-04-14T07:55:09.884Z,6.30
2019-04-14T07:57:55.780Z,6.40
2019-04-14T08:00:38.227Z,6.30
2019-04-14T08:03:14.464Z,6.30
2019-04-14T08:05:44.905Z,6.30
2019-04-14T08:08:13.668Z,6.30
2019-04-14T08:10:42.459Z,6.40
2019-04-14T08:13:11.648Z,6.40
2019-04-14T08:15:40.500Z,6.40
2019-04-14T08:18:09.316Z,6.40
2019-04-14T08:20:38.129Z,6.40
2019-04-14T08:23:06.881Z,6.50
2019-04-14T08:25:35.714Z,6.60
2019-04-14T08:28:04.821Z,6.70
2019-04-14T08:30:33.642Z,6.70
2019-04-14T08:33:02.465Z,6.80
2019-04-14T08:35:31.218Z,6.70
2019-04-14T08:38:00.023Z,6.80
2019-04-14T08:40:28.868Z,6.70
2019-04-14T08:43:02.457Z,6.70
2019-04-14T08:45:44.997Z,6.70
2019-04-14T08:48:15.395Z,6.80
2019-04-14T08:50:51.594Z,6.70
2019-04-14T08:53:38.251Z,6.80
2019-04-14T08:56:11.581Z,6.90
2019-04-14T08:58:41.981Z,6.90
2019-04-14T09:01:12.377Z,7.00
2019-04-14T09:03:48.731Z,7.00
2019-04-14T09:06:24.901Z,7.00
2019-04-14T09:09:11.585Z,7.00
2019-04-14T09:11:44.771Z,7.10
2019-04-14T09:14:14.064Z,7.00
2019-04-14T09:16:42.919Z,7.00
2019-04-14T09:19:11.713Z,6.90
2019-04-14T09:21:40.521Z,6.90
2019-04-14T09:24:09.335Z,7.00
2019-04-14T09:26:38.103Z,7.10
2019-04-14T09:29:06.896Z,7.30
2019-04-14T09:31:35.761Z,7.40
2019-04-14T09:34:04.554Z,7.30
2019-04-14T09:36:33.281Z,7.30
2019-04-14T09:39:02.147Z,7.30
2019-04-14T09:47:48.747Z,7.40
2019-04-14T09:50:17.540Z,7.60
2019-04-14T09:52:47.806Z,7.60
2019-04-14T09:55:16.662Z,7.60
2019-04-14T09:57:45.394Z,7.50
2019-04-14T10:00:14.927Z,7.50
2019-04-14T10:02:43.751Z,7.70
2019-04-14T10:05:12.502Z,7.80
2019-04-14T10:07:41.315Z,7.80
2019-04-14T10:10:10.146Z,7.80
2019-04-14T10:12:39.420Z,7.80
2019-04-14T10:15:08.571Z,7.90
2019-04-14T10:17:37.356Z,7.80
2019-04-14T10:20:06.794Z,7.70
2019-04-14T10:22:35.673Z,7.70
2019-04-14T10:25:05.507Z,7.60
2019-04-14T10:27:34.315Z,7.50
2019-04-14T10:30:03.653Z,7.40
2019-04-14T10:32:32.423Z,7.50
2019-04-14T10:35:01.269Z,7.60
2019-04-14T10:37:30.448Z,7.70
2019-04-14T10:39:59.170Z,7.70
2019-04-14T10:42:31.979Z,7.80
2019-04-14T10:45:00.782Z,7.80
2019-04-14T10:47:29.624Z,7.90
2019-04-14T10:49:58.810Z,8.20
2019-04-14T10:52:27.598Z,8.40
2019-04-14T10:54:56.437Z,8.40
2019-04-14T10:57:25.268Z,8.50
2019-04-14T10:59:54.130Z,8.20
2019-04-14T11:02:22.955Z,8.40
2019-04-14T11:04:51.742Z,8.40
2019-04-14T11:07:22.456Z,8.20
2019-04-14T11:09:53.839Z,8.10
2019-04-14T11:12:21.668Z,7.90
2019-04-14T11:14:50.875Z,8.00
2019-04-14T11:17:19.696Z,8.00
2019-04-14T11:19:48.481Z,8.10
2019-04-14T11:22:17.269Z,8.10
2019-04-14T11:24:46.108Z,8.20
2019-04-14T11:27:14.990Z,8.10
2019-04-14T11:29:43.883Z,8.10
2019-04-14T11:32:14.298Z,8.10
2019-04-14T11:34:50.801Z,8.00
2019-04-14T11:37:37.424Z,8.20
2019-04-14T11:40:08.823Z,8.30
2019-04-14T11:42:37.662Z,8.30
2019-04-14T11:45:07.482Z,8.30
2019-04-14T11:47:36.206Z,8.40
2019-04-14T11:50:06.933Z,8.30
2019-04-14T11:52:35.807Z,8.20
2019-04-14T11:55:05.873Z,8.30
2019-04-14T11:57:34.663Z,8.50
2019-04-14T12:00:22.986Z,8.50
2019-04-14T12:03:09.607Z,8.60
2019-04-14T12:05:42.748Z,8.60
2019-04-14T12:08:16.104Z,8.40
2019-04-14T12:10:44.845Z,8.40
2019-04-14T12:13:14.858Z,8.40
2019-04-14T12:15:43.992Z,8.30
2019-04-14T12:18:12.854Z,8.40
2019-04-14T12:20:41.640Z,8.40
2019-04-14T12:23:10.494Z,8.30
2019-04-14T12:25:39.285Z,8.30
2019-04-14T12:28:09.121Z,8.30
2019-04-14T12:30:38.160Z,8.50
2019-04-14T12:33:06.957Z,8.40
2019-04-14T12:35:36.122Z,8.30
2019-04-14T12:38:04.916Z,8.20
2019-04-14T12:40:34.168Z,8.20
2019-04-14T12:43:20.853Z,8.00
2019-04-14T12:46:07.713Z,8.00
2019-04-14T12:48:43.945Z,8.10
2019-04-14T12:51:14.352Z,8.30
2019-04-14T12:53:43.147Z,8.50
2019-04-14T12:56:13.553Z,8.50
2019-04-14T12:59:02.278Z,8.50
2019-04-14T13:01:44.564Z,8.50
2019-04-14T13:04:13.402Z,8.60
2019-04-14T13:06:42.198Z,8.60
2019-04-14T13:09:11.343Z,8.60
2019-04-14T13:11:40.176Z,8.60
2019-04-14T13:14:08.965Z,8.80
2019-04-14T13:16:37.732Z,8.70
2019-04-14T13:19:06.493Z,8.70
2019-04-14T13:21:35.225Z,8.80
2019-04-14T13:24:04.160Z,8.70
2019-04-14T13:26:33.046Z,9.00
2019-04-14T13:29:01.835Z,9.10
2019-04-14T13:31:30.671Z,9.20
2019-04-14T13:33:59.941Z,9.10
2019-04-14T13:36:28.769Z,9.20
2019-04-14T13:38:57.914Z,9.30
2019-04-14T13:41:26.751Z,9.30
2019-04-14T13:43:55.573Z,9.30
2019-04-14T13:46:25.255Z,9.20
2019-04-14T13:48:54.089Z,9.00
2019-04-14T13:51:23.014Z,9.00
2019-04-14T13:53:51.870Z,9.10
2019-04-14T13:56:20.714Z,9.10
2019-04-14T13:58:49.530Z,8.90
2019-04-14T14:01:18.293Z,8.80
2019-04-14T14:03:47.125Z,8.70
2019-04-14T14:06:15.944Z,8.60
2019-04-14T14:08:44.771Z,8.70
2019-04-14T14:11:26.847Z,8.50
2019-04-14T14:13:58.206Z,8.50
2019-04-14T14:16:40.647Z,8.40
2019-04-14T14:19:20.427Z,8.50
2019-04-14T14:21:53.994Z,8.60
2019-04-14T14:24:36.258Z,8.70
2019-04-14T14:27:06.646Z,8.70
2019-04-14T14:29:35.406Z,9.00
2019-04-14T14:32:05.905Z,9.00
2019-04-14T14:34:34.803Z,9.00
2019-04-14T14:37:03.708Z,8.80
2019-04-14T14:39:32.912Z,8.80
2019-04-14T14:42:02.710Z,8.70
2019-04-14T14:44:33.087Z,8.90
2019-04-14T14:47:18.652Z,8.90
2019-04-14T14:50:03.961Z,8.80
2019-04-14T14:52:33.785Z,8.80
2019-04-14T14:55:02.600Z,8.80
2019-04-14T14:57:31.407Z,9.00
2019-04-14T15:00:00.255Z,9.00
2019-04-14T15:02:29.042Z,9.00
2019-04-14T15:04:58.253Z,8.80
2019-04-14T15:07:27.037Z,8.80
2019-04-14T15:09:55.856Z,8.90
2019-04-14T15:12:24.633Z,8.80
2019-04-14T15:14:53.446Z,8.90
2019-04-14T15:17:22.284Z,8.80
2019-04-14T15:19:51.061Z,8.50
2019-04-14T15:22:20.283Z,8.40
2019-04-14T15:24:49.483Z,8.30
2019-04-14T15:27:18.320Z,8.30
2019-04-14T15:29:47.123Z,8.30
2019-04-14T15:32:16.340Z,8.20
2019-04-14T15:34:45.064Z,8.20
2019-04-14T15:37:13.939Z,8.20
2019-04-14T15:39:42.730Z,8.10
2019-04-14T15:42:11.552Z,8.10
2019-04-14T15:44:40.695Z,8.10
2019-04-14T15:47:09.796Z,8.00
2019-04-14T15:49:38.614Z,8.00
2019-04-14T15:52:07.343Z,8.00
2019-04-14T15:54:36.565Z,8.10
2019-04-14T15:57:13.124Z,8.10
2019-04-14T15:59:46.426Z,8.20
2019-04-14T16:02:16.832Z,8.30
2019-04-14T16:04:47.579Z,8.30
2019-04-14T16:07:26.960Z,8.40
2019-04-14T16:10:01.183Z,8.50
2019-04-14T16:12:37.437Z,8.50
2019-04-14T16:15:18.462Z,8.30
2019-04-14T16:17:48.872Z,8.20
2019-04-14T16:20:19.612Z,8.10
2019-04-14T16:22:49.388Z,7.90
2019-04-14T16:25:18.422Z,8.00
2019-04-14T16:27:51.728Z,8.30
2019-04-14T16:30:25.424Z,8.30
2019-04-14T16:33:07.841Z,8.40
2019-04-14T16:35:38.194Z,8.30
2019-04-14T16:38:06.969Z,8.30
2019-04-14T16:40:36.868Z,8.30
2019-04-14T16:43:05.676Z,8.20
2019-04-14T16:45:34.480Z,8.10
2019-04-14T16:48:03.301Z,8.00
2019-04-14T16:50:32.499Z,7.90
2019-04-14T16:53:03.821Z,7.70
2019-04-14T16:55:46.446Z,7.60
2019-04-14T16:58:19.595Z,7.50
2019-04-14T17:00:52.847Z,7.50
2019-04-14T17:03:21.621Z,7.40
2019-04-14T17:05:50.433Z,7.30
2019-04-14T17:08:19.267Z,7.20
2019-04-14T17:10:48.105Z,7.20
2019-04-14T17:13:16.896Z,7.00
2019-04-14T17:15:58.956Z,7.00
2019-04-14T17:18:45.567Z,6.90
2019-04-14T17:21:15.966Z,6.80
2019-04-14T17:23:58.521Z,6.90
2019-04-14T17:26:31.347Z,6.80
2019-04-14T17:29:04.876Z,6.80
2019-04-14T17:31:52.077Z,6.70
2019-04-14T17:34:31.579Z,6.70
2019-04-14T17:37:08.593Z,6.70
2019-04-14T17:39:44.813Z,6.60
2019-04-14T17:42:27.160Z,6.60
2019-04-14T17:44:57.944Z,6.60
2019-04-14T17:47:43.700Z,6.70
2019-04-14T17:50:40.017Z,6.70
2019-04-14T17:53:08.441Z,6.70
2019-04-14T17:55:50.799Z,6.70
2019-04-14T17:58:26.975Z,6.70
2019-04-14T18:01:09.656Z,6.60
2019-04-14T18:03:42.578Z,6.60
2019-04-14T18:06:25.301Z,6.60
2019-04-14T18:09:11.660Z,6.60
2019-04-14T18:11:58.561Z,6.60
2019-04-14T18:14:31.803Z,6.50
2019-04-14T18:17:08.063Z,6.60
2019-04-14T18:19:53.538Z,6.50
2019-04-14T18:22:22.387Z,6.40
2019-04-14T18:24:51.223Z,6.40
2019-04-14T18:27:20.053Z,6.40
2019-04-14T18:29:53.047Z,6.40
2019-04-14T18:32:26.372Z,6.30
2019-04-14T18:35:12.744Z,6.30
2019-04-14T18:37:55.420Z,6.20
2019-04-14T18:40:28.510Z,6.20
2019-04-14T18:43:17.864Z,6.10
2019-04-14T18:45:48.261Z,6.10
2019-04-14T18:48:18.669Z,6.00
2019-04-14T18:50:58.029Z,6.00
2019-04-14T18:53:28.465Z,6.00
2019-04-14T18:55:58.873Z,6.00
2019-04-14T18:58:38.401Z,5.90
2019-04-14T19:01:08.812Z,5.80
2019-04-14T19:03:37.603Z,5.60
2019-04-14T19:06:06.747Z,5.60
2019-04-14T19:08:35.529Z,5.50
2019-04-14T19:11:15.419Z,5.50
2019-04-14T19:13:54.794Z,5.40
2019-04-14T19:16:25.192Z,5.30
2019-04-14T19:19:04.954Z,5.30
2019-04-14T19:21:33.669Z,5.30
2019-04-14T19:24:02.504Z,5.30
2019-04-14T19:26:31.916Z,5.20
2019-04-14T19:29:01.044Z,5.10
2019-04-14T19:31:30.137Z,5.10
2019-04-14T19:33:58.908Z,5.00
2019-04-14T19:36:27.694Z,5.00
2019-04-14T19:38:56.556Z,5.00
2019-04-14T19:41:27.228Z,4.90
2019-04-14T19:43:55.918Z,4.90
2019-04-14T19:46:25.008Z,4.90
2019-04-14T19:48:54.209Z,4.90
2019-04-14T19:51:23.080Z,4.80
2019-04-14T19:53:51.872Z,4.80
2019-04-14T19:56:20.712Z,4.80
2019-04-14T19:58:49.504Z,4.80
2019-04-14T20:01:18.592Z,4.80
2019-04-14T20:03:47.749Z,4.80
2019-04-14T20:06:16.584Z,4.80
2019-04-14T20:08:45.443Z,4.80
2019-04-14T20:11:14.252Z,4.80
2019-04-14T20:13:44.772Z,4.80
2019-04-14T20:16:17.836Z,4.80
2019-04-14T20:19:10.516Z,4.80
2019-04-14T20:21:53.398Z,4.80
2019-04-14T20:24:23.796Z,4.80
2019-04-14T20:26:54.300Z,4.80
2019-04-14T20:29:27.538Z,4.80
2019-04-14T20:32:06.933Z,4.80
2019-04-14T20:34:36.066Z,4.80
2019-04-14T20:37:04.961Z,4.80
2019-04-14T20:39:33.993Z,4.80
2019-04-14T20:42:02.869Z,4.80
2019-04-14T20:44:31.711Z,4.80
2019-04-14T20:47:00.548Z,4.80
2019-04-14T20:49:29.337Z,4.70
2019-04-14T20:51:58.152Z,4.70
2019-04-14T20:54:26.960Z,4.70
2019-04-14T20:56:55.706Z,4.80
2019-04-14T20:59:24.511Z,4.80
2019-04-14T21:02:00.567Z,4.70
2019-04-14T21:04:30.935Z,4.70
2019-04-14T21:07:17.711Z,4.70
2019-04-14T21:09:48.074Z,4.70
2019-04-14T21:12:30.566Z,4.70
2019-04-14T21:15:03.530Z,4.70
2019-04-14T21:17:42.674Z,4.70
2019-04-14T21:20:15.794Z,4.60
2019-04-14T21:22:58.114Z,4.60
2019-04-14T21:25:31.616Z,4.60
2019-04-14T21:28:05.278Z,4.60
2019-04-14T21:30:44.888Z,4.50
2019-04-14T21:33:31.663Z,4.50
2019-04-14T21:36:14.015Z,4.50
2019-04-14T21:38:59.677Z,4.50
2019-04-14T21:41:32.804Z,4.50
2019-04-14T21:44:01.880Z,4.50
2019-04-14T21:46:30.735Z,4.60
2019-04-14T21:48:59.568Z,4.60
2019-04-14T21:51:46.620Z,4.70
2019-04-14T21:54:15.444Z,4.80
2019-04-14T21:56:46.167Z,4.90
2019-04-14T21:59:19.265Z,4.90
2019-04-14T22:01:58.723Z,5.00
2019-04-14T22:04:35.169Z,5.10
2019-04-14T22:07:17.387Z,5.20
2019-04-14T22:09:46.414Z,5.20
2019-04-14T22:12:15.589Z,5.30
2019-04-14T22:14:44.430Z,5.30
2019-04-14T22:17:13.558Z,5.30
2019-04-14T22:19:42.402Z,5.30
2019-04-14T22:22:11.536Z,5.40
2019-04-14T22:24:40.334Z,5.40
2019-04-14T22:27:09.147Z,5.40
2019-04-14T22:29:37.991Z,5.40
2019-04-14T22:32:06.788Z,5.40
2019-04-14T22:34:35.611Z,5.50
2019-04-14T22:37:04.415Z,5.50
2019-04-14T22:39:33.171Z,5.50
2019-04-14T22:42:02.348Z,5.50
2019-04-14T22:44:31.122Z,5.50
2019-04-14T22:46:59.926Z,5.50
2019-04-14T22:49:29.716Z,5.50
2019-04-14T22:51:58.497Z,5.50
2019-04-14T22:54:27.358Z,5.50
2019-04-14T22:56:56.241Z,5.50
2019-04-14T22:59:25.033Z,5.50
2019-04-14T23:01:58.159Z,5.50
2019-04-14T23:04:40.588Z,5.50
2019-04-14T23:07:16.837Z,5.50
2019-04-14T23:09:47.215Z,5.50
2019-04-14T23:12:35.644Z,5.50
2019-04-14T23:15:24.460Z,5.50
2019-04-14T23:17:54.839Z,5.50
2019-04-14T23:20:25.256Z,5.50
2019-04-14T23:22:55.953Z,5.50
2019-04-14T23:25:25.046Z,5.50
2019-04-14T23:27:53.849Z,5.50
2019-04-14T23:30:22.668Z,5.50
2019-04-14T23:32:51.505Z,5.50
2019-04-14T23:35:20.342Z,5.50
2019-04-14T23:37:50.075Z,5.50
2019-04-14T23:40:18.897Z,5.50
2019-04-14T23:42:47.700Z,5.40
2019-04-14T23:45:16.521Z,5.30
2019-04-14T23:47:45.326Z,5.20
2019-04-14T23:50:14.237Z,5.10
2019-04-14T23:52:43.042Z,5.10
2019-04-14T23:55:12.068Z,5.00
2019-04-14T23:57:40.913Z,5.00
